sensor_id;sensor_type;location;lat;lon;timestamp;temperature;humidity
7900;DHT22;3995;50.856;4.404;2024-02-14T00:00:12;13.10;68.60
7900;DHT22;3995;50.856;4.404;2024-02-14T00:02:40;13.10;68.50
7900;DHT22;3995;50.856;4.404;2024-02-14T00:05:07;13.10;68.50
7900;DHT22;3995;50.856;4.404;2024-02-14T00:07:36;13.10;68.60
7900;DHT22;3995;50.856;4.404;2024-02-14T00:10:03;13.10;68.60
7900;DHT22;3995;50.856;4.404;2024-02-14T00:12:32;13.10;68.50
7900;DHT22;3995;50.856;4.404;2024-02-14T00:15:00;13.10;68.50
7900;DHT22;3995;50.856;4.404;2024-02-14T00:17:28;13.10;68.50
7900;DHT22;3995;50.856;4.404;2024-02-14T00:19:56;13.10;68.50
7900;DHT22;3995;50.856;4.404;2024-02-14T00:22:23;13.10;68.40
7900;DHT22;3995;50.856;4.404;2024-02-14T00:24:50;13.10;68.50
7900;DHT22;3995;50.856;4.404;2024-02-14T00:27:18;13.10;68.50
7900;DHT22;3995;50.856;4.404;2024-02-14T00:29:46;13.10;68.50
7900;DHT22;3995;50.856;4.404;2024-02-14T00:32:14;13.10;68.60
7900;DHT22;3995;50.856;4.404;2024-02-14T00:34:41;13.10;68.60
7900;DHT22;3995;50.856;4.404;2024-02-14T00:37:08;13.10;68.60
7900;DHT22;3995;50.856;4.404;2024-02-14T00:39:36;13.10;68.60
7900;DHT22;3995;50.856;4.404;2024-02-14T00:42:03;13.10;68.60
7900;DHT22;3995;50.856;4.404;2024-02-14T00:44:31;13.10;68.60
7900;DHT22;3995;50.856;4.404;2024-02-14T00:47:00;13.10;68.60
7900;DHT22;3995;50.856;4.404;2024-02-14T00:49:28;13.10;68.60
7900;DHT22;3995;50.856;4.404;2024-02-14T00:51:55;13.10;68.70
7900;DHT22;3995;50.856;4.404;2024-02-14T00:54:24;13.10;68.70
7900;DHT22;3995;50.856;4.404;2024-02-14T00:56:51;13.10;68.70
7900;DHT22;3995;50.856;4.404;2024-02-14T00:59:19;13.20;68.80
7900;DHT22;3995;50.856;4.404;2024-02-14T01:01:47;13.10;68.70
7900;DHT22;3995;50.856;4.404;2024-02-14T01:04:16;13.20;68.70
7900;DHT22;3995;50.856;4.404;2024-02-14T01:06:43;13.20;68.70
7900;DHT22;3995;50.856;4.404;2024-02-14T01:09:10;13.20;68.70
7900;DHT22;3995;50.856;4.404;2024-02-14T01:11:37;13.20;68.70
7900;DHT22;3995;50.856;4.404;2024-02-14T01:14:05;13.20;68.70
7900;DHT22;3995;50.856;4.404;2024-02-14T01:16:32;13.20;68.70
7900;DHT22;3995;50.856;4.404;2024-02-14T01:18:59;13.20;68.80
7900;DHT22;3995;50.856;4.404;2024-02-14T01:21:28;13.20;68.90
7900;DHT22;3995;50.856;4.404;2024-02-14T01:23:55;13.20;68.90
7900;DHT22;3995;50.856;4.404;2024-02-14T01:26:22;13.20;68.90
7900;DHT22;3995;50.856;4.404;2024-02-14T01:28:49;13.20;69.00
7900;DHT22;3995;50.856;4.404;2024-02-14T01:31:16;13.20;69.10
7900;DHT22;3995;50.856;4.404;2024-02-14T01:33:43;13.20;69.20
7900;DHT22;3995;50.856;4.404;2024-02-14T01:36:11;13.20;69.30
7900;DHT22;3995;50.856;4.404;2024-02-14T01:38:40;13.20;69.40
7900;DHT22;3995;50.856;4.404;2024-02-14T01:41:08;13.20;69.40
7900;DHT22;3995;50.856;4.404;2024-02-14T01:43:35;13.20;69.50
7900;DHT22;3995;50.856;4.404;2024-02-14T01:46:05;13.20;69.50
7900;DHT22;3995;50.856;4.404;2024-02-14T01:48:33;13.20;69.60
7900;DHT22;3995;50.856;4.404;2024-02-14T01:51:02;13.20;69.60
7900;DHT22;3995;50.856;4.404;2024-02-14T01:53:30;13.20;69.70
7900;DHT22;3995;50.856;4.404;2024-02-14T01:55:59;13.20;69.80
7900;DHT22;3995;50.856;4.404;2024-02-14T01:58:27;13.20;69.90
7900;DHT22;3995;50.856;4.404;2024-02-14T02:00:54;13.20;70.00
7900;DHT22;3995;50.856;4.404;2024-02-14T02:03:24;13.20;70.00
7900;DHT22;3995;50.856;4.404;2024-02-14T02:05:52;13.20;70.10
7900;DHT22;3995;50.856;4.404;2024-02-14T02:08:20;13.20;70.20
7900;DHT22;3995;50.856;4.404;2024-02-14T02:10:47;13.20;70.30
7900;DHT22;3995;50.856;4.404;2024-02-14T02:13:15;13.20;70.40
7900;DHT22;3995;50.856;4.404;2024-02-14T02:15:42;13.20;70.40
7900;DHT22;3995;50.856;4.404;2024-02-14T02:18:11;13.20;70.50
7900;DHT22;3995;50.856;4.404;2024-02-14T02:20:38;13.20;70.50
7900;DHT22;3995;50.856;4.404;2024-02-14T02:23:10;13.20;70.50
7900;DHT22;3995;50.856;4.404;2024-02-14T02:25:40;13.20;70.50
7900;DHT22;3995;50.856;4.404;2024-02-14T02:28:08;13.20;70.60
7900;DHT22;3995;50.856;4.404;2024-02-14T02:30:35;13.20;70.60
7900;DHT22;3995;50.856;4.404;2024-02-14T02:33:03;13.20;70.60
7900;DHT22;3995;50.856;4.404;2024-02-14T02:35:30;13.20;70.60
7900;DHT22;3995;50.856;4.404;2024-02-14T02:37:58;13.20;70.60
7900;DHT22;3995;50.856;4.404;2024-02-14T02:40:26;13.30;70.70
7900;DHT22;3995;50.856;4.404;2024-02-14T02:42:54;13.30;70.70
7900;DHT22;3995;50.856;4.404;2024-02-14T02:45:21;13.30;70.60
7900;DHT22;3995;50.856;4.404;2024-02-14T02:47:49;13.30;70.60
7900;DHT22;3995;50.856;4.404;2024-02-14T02:50:17;13.30;70.70
7900;DHT22;3995;50.856;4.404;2024-02-14T02:52:45;13.30;70.70
7900;DHT22;3995;50.856;4.404;2024-02-14T02:55:12;13.30;70.60
7900;DHT22;3995;50.856;4.404;2024-02-14T02:57:42;13.30;70.70
7900;DHT22;3995;50.856;4.404;2024-02-14T03:00:11;13.30;70.70
7900;DHT22;3995;50.856;4.404;2024-02-14T03:02:39;13.30;70.70
7900;DHT22;3995;50.856;4.404;2024-02-14T03:05:10;13.30;70.70
7900;DHT22;3995;50.856;4.404;2024-02-14T03:07:43;13.30;70.70
7900;DHT22;3995;50.856;4.404;2024-02-14T03:10:10;13.30;70.80
7900;DHT22;3995;50.856;4.404;2024-02-14T03:12:38;13.30;70.80
7900;DHT22;3995;50.856;4.404;2024-02-14T03:15:07;13.30;70.90
7900;DHT22;3995;50.856;4.404;2024-02-14T03:17:35;13.40;71.00
7900;DHT22;3995;50.856;4.404;2024-02-14T03:20:03;13.30;70.90
7900;DHT22;3995;50.856;4.404;2024-02-14T03:22:36;13.40;71.00
7900;DHT22;3995;50.856;4.404;2024-02-14T03:25:04;13.30;71.00
7900;DHT22;3995;50.856;4.404;2024-02-14T03:27:31;13.40;71.20
7900;DHT22;3995;50.856;4.404;2024-02-14T03:29:58;13.40;71.30
7900;DHT22;3995;50.856;4.404;2024-02-14T03:32:30;13.40;71.30
7900;DHT22;3995;50.856;4.404;2024-02-14T03:34:57;13.40;71.30
7900;DHT22;3995;50.856;4.404;2024-02-14T03:37:24;13.40;71.40
7900;DHT22;3995;50.856;4.404;2024-02-14T03:39:51;13.40;71.50
7900;DHT22;3995;50.856;4.404;2024-02-14T03:42:18;13.40;71.50
7900;DHT22;3995;50.856;4.404;2024-02-14T03:44:45;13.40;71.60
7900;DHT22;3995;50.856;4.404;2024-02-14T03:47:12;13.40;71.60
7900;DHT22;3995;50.856;4.404;2024-02-14T03:49:41;13.40;71.80
7900;DHT22;3995;50.856;4.404;2024-02-14T03:52:08;13.40;71.80
7900;DHT22;3995;50.856;4.404;2024-02-14T03:54:37;13.40;72.00
7900;DHT22;3995;50.856;4.404;2024-02-14T03:57:04;13.30;72.00
7900;DHT22;3995;50.856;4.404;2024-02-14T03:59:36;13.30;72.10
7900;DHT22;3995;50.856;4.404;2024-02-14T04:02:04;13.40;72.30
7900;DHT22;3995;50.856;4.404;2024-02-14T04:04:35;13.40;72.40
7900;DHT22;3995;50.856;4.404;2024-02-14T04:07:04;13.40;72.50
7900;DHT22;3995;50.856;4.404;2024-02-14T04:09:33;13.40;72.60
7900;DHT22;3995;50.856;4.404;2024-02-14T04:12:00;13.40;72.60
7900;DHT22;3995;50.856;4.404;2024-02-14T04:14:27;13.40;72.70
7900;DHT22;3995;50.856;4.404;2024-02-14T04:16:54;13.40;72.80
7900;DHT22;3995;50.856;4.404;2024-02-14T04:19:21;13.40;72.90
7900;DHT22;3995;50.856;4.404;2024-02-14T04:21:48;13.40;73.50
7900;DHT22;3995;50.856;4.404;2024-02-14T04:24:17;13.30;72.90
7900;DHT22;3995;50.856;4.404;2024-02-14T04:26:44;13.40;73.00
7900;DHT22;3995;50.856;4.404;2024-02-14T04:29:11;13.40;73.10
7900;DHT22;3995;50.856;4.404;2024-02-14T04:31:38;13.40;73.10
7900;DHT22;3995;50.856;4.404;2024-02-14T04:34:05;13.30;73.10
7900;DHT22;3995;50.856;4.404;2024-02-14T04:36:34;13.40;73.20
7900;DHT22;3995;50.856;4.404;2024-02-14T04:39:02;13.30;73.10
7900;DHT22;3995;50.856;4.404;2024-02-14T04:41:31;13.40;73.20
7900;DHT22;3995;50.856;4.404;2024-02-14T04:44:03;13.40;73.20
7900;DHT22;3995;50.856;4.404;2024-02-14T04:46:32;13.30;73.20
7900;DHT22;3995;50.856;4.404;2024-02-14T04:49:00;13.30;73.20
7900;DHT22;3995;50.856;4.404;2024-02-14T04:51:29;13.30;73.20
7900;DHT22;3995;50.856;4.404;2024-02-14T04:53:56;13.30;73.20
7900;DHT22;3995;50.856;4.404;2024-02-14T04:56:24;13.40;73.30
7900;DHT22;3995;50.856;4.404;2024-02-14T04:58:53;13.40;73.30
7900;DHT22;3995;50.856;4.404;2024-02-14T05:01:20;13.40;73.40
7900;DHT22;3995;50.856;4.404;2024-02-14T05:03:48;13.40;73.50
7900;DHT22;3995;50.856;4.404;2024-02-14T05:06:15;13.40;73.60
7900;DHT22;3995;50.856;4.404;2024-02-14T05:08:43;13.40;73.60
7900;DHT22;3995;50.856;4.404;2024-02-14T05:11:10;13.40;73.60
7900;DHT22;3995;50.856;4.404;2024-02-14T05:13:37;13.40;73.60
7900;DHT22;3995;50.856;4.404;2024-02-14T05:16:09;13.40;73.60
7900;DHT22;3995;50.856;4.404;2024-02-14T05:18:36;13.50;73.70
7900;DHT22;3995;50.856;4.404;2024-02-14T05:21:06;13.40;73.70
7900;DHT22;3995;50.856;4.404;2024-02-14T05:23:33;13.40;73.70
7900;DHT22;3995;50.856;4.404;2024-02-14T05:26:02;13.40;73.70
7900;DHT22;3995;50.856;4.404;2024-02-14T05:28:29;13.40;73.60
7900;DHT22;3995;50.856;4.404;2024-02-14T05:30:56;13.50;73.70
7900;DHT22;3995;50.856;4.404;2024-02-14T05:33:25;13.40;73.60
7900;DHT22;3995;50.856;4.404;2024-02-14T05:35:53;13.50;73.70
7900;DHT22;3995;50.856;4.404;2024-02-14T05:38:20;13.50;73.70
7900;DHT22;3995;50.856;4.404;2024-02-14T05:40:47;13.50;73.70
7900;DHT22;3995;50.856;4.404;2024-02-14T05:43:15;13.50;73.70
7900;DHT22;3995;50.856;4.404;2024-02-14T05:45:43;13.50;73.70
7900;DHT22;3995;50.856;4.404;2024-02-14T05:48:11;13.50;73.70
7900;DHT22;3995;50.856;4.404;2024-02-14T05:50:40;13.50;73.60
7900;DHT22;3995;50.856;4.404;2024-02-14T05:53:07;13.50;73.60
7900;DHT22;3995;50.856;4.404;2024-02-14T05:55:34;13.50;73.60
7900;DHT22;3995;50.856;4.404;2024-02-14T05:58:01;13.50;73.50
7900;DHT22;3995;50.856;4.404;2024-02-14T06:00:28;13.50;73.50
7900;DHT22;3995;50.856;4.404;2024-02-14T06:02:55;13.60;73.60
7900;DHT22;3995;50.856;4.404;2024-02-14T06:05:22;13.50;73.40
7900;DHT22;3995;50.856;4.404;2024-02-14T06:07:51;13.50;73.40
7900;DHT22;3995;50.856;4.404;2024-02-14T06:10:18;13.50;73.40
7900;DHT22;3995;50.856;4.404;2024-02-14T06:12:45;13.50;73.40
7900;DHT22;3995;50.856;4.404;2024-02-14T06:15:13;13.50;73.40
7900;DHT22;3995;50.856;4.404;2024-02-14T06:17:40;13.50;73.40
7900;DHT22;3995;50.856;4.404;2024-02-14T06:20:08;13.50;73.40
7900;DHT22;3995;50.856;4.404;2024-02-14T06:22:36;13.50;73.40
7900;DHT22;3995;50.856;4.404;2024-02-14T06:25:05;13.50;73.40
7900;DHT22;3995;50.856;4.404;2024-02-14T06:27:32;13.60;73.40
7900;DHT22;3995;50.856;4.404;2024-02-14T06:29:59;13.50;73.40
7900;DHT22;3995;50.856;4.404;2024-02-14T06:32:26;13.50;73.40
7900;DHT22;3995;50.856;4.404;2024-02-14T06:34:53;13.50;73.40
7900;DHT22;3995;50.856;4.404;2024-02-14T06:37:20;13.50;73.40
7900;DHT22;3995;50.856;4.404;2024-02-14T06:39:47;13.50;73.30
7900;DHT22;3995;50.856;4.404;2024-02-14T06:42:17;13.60;73.40
7900;DHT22;3995;50.856;4.404;2024-02-14T06:44:45;13.60;73.40
7900;DHT22;3995;50.856;4.404;2024-02-14T06:47:13;13.60;73.40
7900;DHT22;3995;50.856;4.404;2024-02-14T06:49:40;13.60;73.40
7900;DHT22;3995;50.856;4.404;2024-02-14T06:52:07;13.60;73.40
7900;DHT22;3995;50.856;4.404;2024-02-14T06:54:34;13.60;73.40
7900;DHT22;3995;50.856;4.404;2024-02-14T06:57:01;13.60;73.40
7900;DHT22;3995;50.856;4.404;2024-02-14T06:59:30;13.60;73.40
7900;DHT22;3995;50.856;4.404;2024-02-14T07:01:57;13.60;73.40
7900;DHT22;3995;50.856;4.404;2024-02-14T07:04:25;13.60;73.50
7900;DHT22;3995;50.856;4.404;2024-02-14T07:06:53;13.60;73.50
7900;DHT22;3995;50.856;4.404;2024-02-14T07:09:20;13.60;73.50
7900;DHT22;3995;50.856;4.404;2024-02-14T07:11:47;13.60;73.50
7900;DHT22;3995;50.856;4.404;2024-02-14T07:14:15;13.60;73.60
7900;DHT22;3995;50.856;4.404;2024-02-14T07:16:43;13.60;73.60
7900;DHT22;3995;50.856;4.404;2024-02-14T07:19:10;13.60;73.50
7900;DHT22;3995;50.856;4.404;2024-02-14T07:21:37;13.60;73.60
7900;DHT22;3995;50.856;4.404;2024-02-14T07:24:05;13.60;73.50
7900;DHT22;3995;50.856;4.404;2024-02-14T07:26:32;13.60;73.50
7900;DHT22;3995;50.856;4.404;2024-02-14T07:28:59;13.60;73.40
7900;DHT22;3995;50.856;4.404;2024-02-14T07:31:29;13.70;73.60
7900;DHT22;3995;50.856;4.404;2024-02-14T07:34:00;13.70;73.50
7900;DHT22;3995;50.856;4.404;2024-02-14T07:36:28;13.60;73.40
7900;DHT22;3995;50.856;4.404;2024-02-14T07:38:56;13.60;73.50
7900;DHT22;3995;50.856;4.404;2024-02-14T07:41:23;13.60;73.50
7900;DHT22;3995;50.856;4.404;2024-02-14T07:43:51;13.60;73.50
7900;DHT22;3995;50.856;4.404;2024-02-14T07:46:18;13.60;73.50
7900;DHT22;3995;50.856;4.404;2024-02-14T07:48:46;13.60;73.60
7900;DHT22;3995;50.856;4.404;2024-02-14T07:51:16;13.60;73.60
7900;DHT22;3995;50.856;4.404;2024-02-14T07:53:44;13.60;73.60
7900;DHT22;3995;50.856;4.404;2024-02-14T07:56:11;13.60;73.70
7900;DHT22;3995;50.856;4.404;2024-02-14T07:58:39;13.60;73.70
7900;DHT22;3995;50.856;4.404;2024-02-14T08:01:06;13.60;73.80
7900;DHT22;3995;50.856;4.404;2024-02-14T08:03:34;13.60;73.80
7900;DHT22;3995;50.856;4.404;2024-02-14T08:06:01;13.70;73.90
7900;DHT22;3995;50.856;4.404;2024-02-14T08:08:30;13.70;73.90
7900;DHT22;3995;50.856;4.404;2024-02-14T08:10:57;13.70;73.90
7900;DHT22;3995;50.856;4.404;2024-02-14T08:13:24;13.70;73.90
7900;DHT22;3995;50.856;4.404;2024-02-14T08:15:52;13.70;74.00
7900;DHT22;3995;50.856;4.404;2024-02-14T08:18:19;13.70;74.10
7900;DHT22;3995;50.856;4.404;2024-02-14T08:20:47;13.70;74.20
7900;DHT22;3995;50.856;4.404;2024-02-14T08:23:14;13.70;74.20
7900;DHT22;3995;50.856;4.404;2024-02-14T08:25:43;13.70;74.30
7900;DHT22;3995;50.856;4.404;2024-02-14T08:28:10;13.70;74.40
7900;DHT22;3995;50.856;4.404;2024-02-14T08:30:38;13.70;74.40
7900;DHT22;3995;50.856;4.404;2024-02-14T08:33:05;13.70;74.40
7900;DHT22;3995;50.856;4.404;2024-02-14T08:35:32;13.70;74.40
7900;DHT22;3995;50.856;4.404;2024-02-14T08:38:00;13.70;74.40
7900;DHT22;3995;50.856;4.404;2024-02-14T08:40:27;13.80;74.60
7900;DHT22;3995;50.856;4.404;2024-02-14T08:42:55;13.80;74.50
7900;DHT22;3995;50.856;4.404;2024-02-14T08:45:23;13.80;74.60
7900;DHT22;3995;50.856;4.404;2024-02-14T08:47:51;13.80;74.70
7900;DHT22;3995;50.856;4.404;2024-02-14T08:50:18;13.80;74.80
7900;DHT22;3995;50.856;4.404;2024-02-14T08:52:45;13.80;74.80
7900;DHT22;3995;50.856;4.404;2024-02-14T08:55:12;13.80;74.90
7900;DHT22;3995;50.856;4.404;2024-02-14T08:57:43;13.80;74.90
7900;DHT22;3995;50.856;4.404;2024-02-14T09:00:13;13.80;75.00
7900;DHT22;3995;50.856;4.404;2024-02-14T09:02:45;13.80;74.90
7900;DHT22;3995;50.856;4.404;2024-02-14T09:05:13;13.80;74.90
7900;DHT22;3995;50.856;4.404;2024-02-14T09:07:42;13.80;75.00
7900;DHT22;3995;50.856;4.404;2024-02-14T09:10:10;13.80;75.00
7900;DHT22;3995;50.856;4.404;2024-02-14T09:12:38;13.80;74.90
7900;DHT22;3995;50.856;4.404;2024-02-14T09:15:07;13.80;75.00
7900;DHT22;3995;50.856;4.404;2024-02-14T09:17:36;13.80;75.10
7900;DHT22;3995;50.856;4.404;2024-02-14T09:20:05;13.90;75.30
7900;DHT22;3995;50.856;4.404;2024-02-14T09:22:35;13.80;75.20
7900;DHT22;3995;50.856;4.404;2024-02-14T09:25:02;13.90;75.30
7900;DHT22;3995;50.856;4.404;2024-02-14T09:27:31;13.90;75.20
7900;DHT22;3995;50.856;4.404;2024-02-14T09:29:58;13.90;75.20
7900;DHT22;3995;50.856;4.404;2024-02-14T09:32:26;13.90;75.20
7900;DHT22;3995;50.856;4.404;2024-02-14T09:34:54;13.90;75.30
7900;DHT22;3995;50.856;4.404;2024-02-14T09:37:22;13.90;75.40
7900;DHT22;3995;50.856;4.404;2024-02-14T09:39:49;13.90;75.50
7900;DHT22;3995;50.856;4.404;2024-02-14T09:42:21;13.90;75.50
7900;DHT22;3995;50.856;4.404;2024-02-14T09:44:53;13.90;75.50
7900;DHT22;3995;50.856;4.404;2024-02-14T09:47:25;14.00;75.70
7900;DHT22;3995;50.856;4.404;2024-02-14T09:49:56;13.90;75.70
7900;DHT22;3995;50.856;4.404;2024-02-14T09:52:24;13.90;75.70
7900;DHT22;3995;50.856;4.404;2024-02-14T09:54:52;13.90;75.90
7900;DHT22;3995;50.856;4.404;2024-02-14T09:57:20;13.90;76.10
7900;DHT22;3995;50.856;4.404;2024-02-14T09:59:49;13.90;76.20
7900;DHT22;3995;50.856;4.404;2024-02-14T10:02:17;14.00;76.40
7900;DHT22;3995;50.856;4.404;2024-02-14T10:04:44;13.90;76.30
7900;DHT22;3995;50.856;4.404;2024-02-14T10:07:13;13.90;76.50
7900;DHT22;3995;50.856;4.404;2024-02-14T10:09:41;13.90;76.60
7900;DHT22;3995;50.856;4.404;2024-02-14T10:12:09;13.90;76.70
7900;DHT22;3995;50.856;4.404;2024-02-14T10:14:36;14.00;76.80
7900;DHT22;3995;50.856;4.404;2024-02-14T10:17:04;13.90;76.70
7900;DHT22;3995;50.856;4.404;2024-02-14T10:19:31;13.90;76.80
7900;DHT22;3995;50.856;4.404;2024-02-14T10:21:59;13.90;76.90
7900;DHT22;3995;50.856;4.404;2024-02-14T10:24:30;13.90;76.90
7900;DHT22;3995;50.856;4.404;2024-02-14T10:26:59;14.00;77.00
7900;DHT22;3995;50.856;4.404;2024-02-14T10:29:26;14.00;77.10
7900;DHT22;3995;50.856;4.404;2024-02-14T10:31:54;14.00;77.20
7900;DHT22;3995;50.856;4.404;2024-02-14T10:34:25;14.00;77.40
7900;DHT22;3995;50.856;4.404;2024-02-14T10:36:53;14.00;77.40
7900;DHT22;3995;50.856;4.404;2024-02-14T10:39:25;14.00;77.50
7900;DHT22;3995;50.856;4.404;2024-02-14T10:41:54;14.00;77.60
7900;DHT22;3995;50.856;4.404;2024-02-14T10:44:22;14.00;77.70
7900;DHT22;3995;50.856;4.404;2024-02-14T10:46:51;14.00;78.00
7900;DHT22;3995;50.856;4.404;2024-02-14T10:49:20;14.00;77.80
7900;DHT22;3995;50.856;4.404;2024-02-14T10:51:48;14.10;77.90
7900;DHT22;3995;50.856;4.404;2024-02-14T10:54:17;14.10;77.90
7900;DHT22;3995;50.856;4.404;2024-02-14T10:56:49;14.10;78.00
7900;DHT22;3995;50.856;4.404;2024-02-14T10:59:21;14.10;78.00
7900;DHT22;3995;50.856;4.404;2024-02-14T11:01:49;14.10;78.00
7900;DHT22;3995;50.856;4.404;2024-02-14T11:04:18;14.10;78.00
7900;DHT22;3995;50.856;4.404;2024-02-14T11:06:46;14.10;78.00
7900;DHT22;3995;50.856;4.404;2024-02-14T11:09:14;14.10;77.90
7900;DHT22;3995;50.856;4.404;2024-02-14T11:11:42;14.10;78.00
7900;DHT22;3995;50.856;4.404;2024-02-14T11:14:10;14.10;77.90
7900;DHT22;3995;50.856;4.404;2024-02-14T11:16:40;14.10;78.00
7900;DHT22;3995;50.856;4.404;2024-02-14T11:19:09;14.10;77.90
7900;DHT22;3995;50.856;4.404;2024-02-14T11:21:37;14.10;78.00
7900;DHT22;3995;50.856;4.404;2024-02-14T11:24:05;14.20;78.20
7900;DHT22;3995;50.856;4.404;2024-02-14T11:26:49;14.10;78.10
7900;DHT22;3995;50.856;4.404;2024-02-14T11:29:17;14.20;78.00
7900;DHT22;3995;50.856;4.404;2024-02-14T11:31:46;14.10;78.20
7900;DHT22;3995;50.856;4.404;2024-02-14T11:34:15;14.10;78.30
7900;DHT22;3995;50.856;4.404;2024-02-14T11:36:44;14.10;78.40
7900;DHT22;3995;50.856;4.404;2024-02-14T11:39:12;14.20;78.50
7900;DHT22;3995;50.856;4.404;2024-02-14T11:41:39;14.20;78.60
7900;DHT22;3995;50.856;4.404;2024-02-14T11:44:08;14.20;78.70
7900;DHT22;3995;50.856;4.404;2024-02-14T11:46:37;14.20;78.60
7900;DHT22;3995;50.856;4.404;2024-02-14T11:49:06;14.20;78.60
7900;DHT22;3995;50.856;4.404;2024-02-14T11:51:35;14.20;78.70
7900;DHT22;3995;50.856;4.404;2024-02-14T11:54:04;14.20;78.70
7900;DHT22;3995;50.856;4.404;2024-02-14T11:56:32;14.20;78.80
7900;DHT22;3995;50.856;4.404;2024-02-14T11:59:00;14.20;78.80
7900;DHT22;3995;50.856;4.404;2024-02-14T12:01:30;14.20;78.80
7900;DHT22;3995;50.856;4.404;2024-02-14T12:03:58;14.20;78.80
7900;DHT22;3995;50.856;4.404;2024-02-14T12:06:28;14.20;78.80
7900;DHT22;3995;50.856;4.404;2024-02-14T12:08:57;14.20;78.80
7900;DHT22;3995;50.856;4.404;2024-02-14T12:11:27;14.20;78.80
7900;DHT22;3995;50.856;4.404;2024-02-14T12:13:54;14.20;78.90
7900;DHT22;3995;50.856;4.404;2024-02-14T12:16:22;14.30;79.10
7900;DHT22;3995;50.856;4.404;2024-02-14T12:18:49;14.30;79.10
7900;DHT22;3995;50.856;4.404;2024-02-14T12:21:35;14.30;79.10
7900;DHT22;3995;50.856;4.404;2024-02-14T12:24:03;14.30;79.20
7900;DHT22;3995;50.856;4.404;2024-02-14T12:26:31;14.30;79.30
7900;DHT22;3995;50.856;4.404;2024-02-14T12:29:01;14.30;79.50
7900;DHT22;3995;50.856;4.404;2024-02-14T12:31:30;14.30;79.50
7900;DHT22;3995;50.856;4.404;2024-02-14T12:33:57;14.30;79.50
7900;DHT22;3995;50.856;4.404;2024-02-14T12:36:27;14.30;79.60
7900;DHT22;3995;50.856;4.404;2024-02-14T12:38:56;14.30;79.70
7900;DHT22;3995;50.856;4.404;2024-02-14T12:41:23;14.30;79.70
7900;DHT22;3995;50.856;4.404;2024-02-14T12:43:52;14.30;79.70
7900;DHT22;3995;50.856;4.404;2024-02-14T12:46:19;14.30;79.60
7900;DHT22;3995;50.856;4.404;2024-02-14T12:48:46;14.30;79.70
7900;DHT22;3995;50.856;4.404;2024-02-14T12:51:13;14.40;79.80
7900;DHT22;3995;50.856;4.404;2024-02-14T12:53:40;14.40;79.80
7900;DHT22;3995;50.856;4.404;2024-02-14T12:56:09;14.40;79.80
7900;DHT22;3995;50.856;4.404;2024-02-14T12:58:36;14.40;79.90
7900;DHT22;3995;50.856;4.404;2024-02-14T13:01:04;14.40;80.00
7900;DHT22;3995;50.856;4.404;2024-02-14T13:03:32;14.40;80.10
7900;DHT22;3995;50.856;4.404;2024-02-14T13:06:01;14.40;80.10
7900;DHT22;3995;50.856;4.404;2024-02-14T13:08:28;14.40;80.20
7900;DHT22;3995;50.856;4.404;2024-02-14T13:10:56;14.40;80.20
7900;DHT22;3995;50.856;4.404;2024-02-14T13:13:25;14.40;80.30
7900;DHT22;3995;50.856;4.404;2024-02-14T13:15:55;14.40;80.30
7900;DHT22;3995;50.856;4.404;2024-02-14T13:18:22;14.40;80.40
7900;DHT22;3995;50.856;4.404;2024-02-14T13:20:50;14.40;80.50
7900;DHT22;3995;50.856;4.404;2024-02-14T13:23:23;14.40;80.50
7900;DHT22;3995;50.856;4.404;2024-02-14T13:25:50;14.40;80.50
7900;DHT22;3995;50.856;4.404;2024-02-14T13:28:17;14.40;80.70
7900;DHT22;3995;50.856;4.404;2024-02-14T13:30:47;14.40;80.70
7900;DHT22;3995;50.856;4.404;2024-02-14T13:33:14;14.40;80.80
7900;DHT22;3995;50.856;4.404;2024-02-14T13:35:41;14.40;80.90
7900;DHT22;3995;50.856;4.404;2024-02-14T13:38:09;14.50;81.10
7900;DHT22;3995;50.856;4.404;2024-02-14T13:40:36;14.40;81.10
7900;DHT22;3995;50.856;4.404;2024-02-14T13:43:04;14.40;81.20
7900;DHT22;3995;50.856;4.404;2024-02-14T13:45:40;14.40;81.30
7900;DHT22;3995;50.856;4.404;2024-02-14T13:48:10;14.50;81.20
7900;DHT22;3995;50.856;4.404;2024-02-14T13:50:38;14.40;81.90
7900;DHT22;3995;50.856;4.404;2024-02-14T13:53:06;14.40;81.30
7900;DHT22;3995;50.856;4.404;2024-02-14T13:55:33;14.40;81.30
7900;DHT22;3995;50.856;4.404;2024-02-14T13:58:01;14.40;81.40
7900;DHT22;3995;50.856;4.404;2024-02-14T14:00:28;14.40;81.50
7900;DHT22;3995;50.856;4.404;2024-02-14T14:02:55;14.50;81.60
7900;DHT22;3995;50.856;4.404;2024-02-14T14:05:24;14.50;81.60
7900;DHT22;3995;50.856;4.404;2024-02-14T14:07:51;14.50;81.70
7900;DHT22;3995;50.856;4.404;2024-02-14T14:10:18;14.50;81.70
7900;DHT22;3995;50.856;4.404;2024-02-14T14:12:46;14.50;81.80
7900;DHT22;3995;50.856;4.404;2024-02-14T14:15:13;14.50;81.80
7900;DHT22;3995;50.856;4.404;2024-02-14T14:17:41;14.50;81.90
7900;DHT22;3995;50.856;4.404;2024-02-14T14:20:10;14.50;82.00
7900;DHT22;3995;50.856;4.404;2024-02-14T14:22:39;14.50;82.10
7900;DHT22;3995;50.856;4.404;2024-02-14T14:25:07;14.50;82.10
7900;DHT22;3995;50.856;4.404;2024-02-14T14:27:34;14.50;82.10
7900;DHT22;3995;50.856;4.404;2024-02-14T14:30:01;14.50;82.10
7900;DHT22;3995;50.856;4.404;2024-02-14T14:32:30;14.50;82.20
7900;DHT22;3995;50.856;4.404;2024-02-14T14:34:57;14.50;82.20
7900;DHT22;3995;50.856;4.404;2024-02-14T14:37:24;14.50;82.20
7900;DHT22;3995;50.856;4.404;2024-02-14T14:39:53;14.50;82.30
7900;DHT22;3995;50.856;4.404;2024-02-14T14:42:22;14.50;82.20
7900;DHT22;3995;50.856;4.404;2024-02-14T14:44:49;14.50;82.20
7900;DHT22;3995;50.856;4.404;2024-02-14T14:47:17;14.50;82.10
7900;DHT22;3995;50.856;4.404;2024-02-14T14:49:44;14.60;82.20
7900;DHT22;3995;50.856;4.404;2024-02-14T14:52:11;14.50;82.10
7900;DHT22;3995;50.856;4.404;2024-02-14T14:54:38;14.50;82.10
7900;DHT22;3995;50.856;4.404;2024-02-14T14:57:07;14.50;82.10
7900;DHT22;3995;50.856;4.404;2024-02-14T14:59:39;14.60;82.20
7900;DHT22;3995;50.856;4.404;2024-02-14T15:02:07;14.60;82.30
7900;DHT22;3995;50.856;4.404;2024-02-14T15:04:34;14.60;82.90
7900;DHT22;3995;50.856;4.404;2024-02-14T15:07:02;14.60;82.40
7900;DHT22;3995;50.856;4.404;2024-02-14T15:09:29;14.60;82.40
7900;DHT22;3995;50.856;4.404;2024-02-14T15:11:56;14.60;82.70
7900;DHT22;3995;50.856;4.404;2024-02-14T15:14:25;14.60;82.30
7900;DHT22;3995;50.856;4.404;2024-02-14T15:16:53;14.60;82.20
7900;DHT22;3995;50.856;4.404;2024-02-14T15:19:20;14.60;82.30
7900;DHT22;3995;50.856;4.404;2024-02-14T15:21:49;14.60;82.30
7900;DHT22;3995;50.856;4.404;2024-02-14T15:24:17;14.60;82.20
7900;DHT22;3995;50.856;4.404;2024-02-14T15:26:46;14.60;82.30
7900;DHT22;3995;50.856;4.404;2024-02-14T15:29:27;14.60;82.30
7900;DHT22;3995;50.856;4.404;2024-02-14T15:32:12;14.60;82.40
7900;DHT22;3995;50.856;4.404;2024-02-14T15:34:56;14.60;82.40
7900;DHT22;3995;50.856;4.404;2024-02-14T15:37:23;14.60;82.40
7900;DHT22;3995;50.856;4.404;2024-02-14T15:39:51;14.60;82.50
7900;DHT22;3995;50.856;4.404;2024-02-14T15:42:18;14.60;82.50
7900;DHT22;3995;50.856;4.404;2024-02-14T15:44:47;14.70;82.70
7900;DHT22;3995;50.856;4.404;2024-02-14T15:47:14;14.60;82.60
7900;DHT22;3995;50.856;4.404;2024-02-14T15:49:41;14.60;82.60
7900;DHT22;3995;50.856;4.404;2024-02-14T15:52:08;14.70;82.70
7900;DHT22;3995;50.856;4.404;2024-02-14T15:54:37;14.70;82.60
7900;DHT22;3995;50.856;4.404;2024-02-14T15:57:09;14.70;82.50
7900;DHT22;3995;50.856;4.404;2024-02-14T15:59:37;14.70;82.50
7900;DHT22;3995;50.856;4.404;2024-02-14T16:02:08;14.70;82.50
7900;DHT22;3995;50.856;4.404;2024-02-14T16:04:35;14.70;82.50
7900;DHT22;3995;50.856;4.404;2024-02-14T16:07:03;14.70;82.50